Relevés horaires Schaffen (Belgique)


Relevés horaires à Schaffen - Dimanche 15 Mars 2020
Heure UTC1 Température [°C] Vent [km/h] Hum. [%] Pres.4 [hPa] Visi. [Km] Nébu. [octa] Préc.5 [mm] Cond.
2m. Res. Ros. Dir.2 Vit. Moy. Raf.3
23:00 9.3 9.3 5.2 NNO 1.9 -- 5.6 76 1013.2(0.8/3h) 20 -- -- --
22:00 9.1 9.1 5.4 SSE 3.7 -- 7.4 78 1012.7(0.2/3h) 20 -- -- --
21:00 10.8 10.8 5.8 NNO 1.9 -- 9.3 71 1012.5(0.2/3h) 20 -- -- --
20:00 12.3 12.3 5.6 S 3.7 -- 7.4 64 1012.3(0.6/3h) 20 -- -- --
19:00 12.5 12.4 5.6 S 5.6 -- 9.3 63 1012.3(0.7/3h) 20 -- -- --
18:00 13.3 13.3 5.6 SSO 5.6 -- 24.1 60 1012.2(0.2/3h) 20 -- -- --
17:00 13.6 13.6 5.6 SSO 3.7 -- 11.1 58 1011.7(-0.5/3h) 20 -- -- --
16:00 13.7 13.5 5.4 SSO 7.4 -- 16.7 57 1011.6(-0.9/3h) 20 -- -- --
15:00 13.6 13 5.4 SSO 9.3 -- 24.1 58 1011.8(-1.4/3h) 20 -- -- --
14:00 12.9 12.2 5.2 SSO 9.3 -- 18.5 59 1012.2(-1.7/3h) 20 -- -- --
13:00 12.3 11.5 5.3 SSO 9.3 14.8 24.1 62 1012.7(-1.8/3h) 20 -- -- --
12:00 11.2 9.9 4.4 SSO 11.1 -- 27.8 63 1013.5(-1.4/3h) 20 -- -- --
11:00 10.7 9.3 4.6 SSO 11.1 -- 20.4 66 1014(-0.9/3h) 20 -- -- --
10:00 10.4 9.2 5.8 S 9.3 -- 20.4 73 1014.6(-0.4/3h) 20 -- -- --
09:00 10.0 8.8 6.4 S 9.3 -- 16.7 78 1015(-0.4/3h) 20 -- -- --
08:00 9.4 8.4 6.8 S 7.4 -- 14.8 84 1015.1(-0.2/3h) 20 -- -- --
07:00 8.3 6.7 6.1 S 9.3 -- 14.8 86 1015.1(-0.6/3h) 20 -- -- --
06:00 7.5 5.8 5.8 S 9.3 -- 14.8 89 1015.5(-0.5/3h) 20 -- -- --
05:00 7.8 6.6 5.9 S 7.4 -- 13.0 88 1015.3(-1.2/3h) 20 -- -- --
04:00 7.3 6 5.6 S 7.4 -- 11.1 89 1015.7(-1.6/3h) 20 -- -- --
03:00 7.5 6.2 5.6 S 7.4 -- 14.8 88 1016.1(-1.7/3h) 20 -- -- --
02:00 7.2 5.9 5.6 S 7.4 -- 11.1 90 1016.6(-1.3/3h) 20 -- -- --
01:00 7.6 6.3 5.5 S 7.4 -- 14.8 87 1017.3(-0.8/3h) 20 -- -- --
00:00 8.1 6.9 5.4 S 7.4 -- 16.7 83 1017.7(-0.6/3h) 20 -- -- --

1 Coordinated Universal Time. Actuellement il est 17:00 locale et 15:00 UTC.

2 Le vent souffle depuis la direction indiquée vers la direction oposée.

3 Les rafales max. sont disponible 40 min après l'heure du relevé.

4 Pour les stations d'altitude (plus de 600m) le géopotentiel du niveau le plus proche de la pression obligatoire est indiqué.

5 Les stations disposant d'un diffuseur peuvent indiquer "trace". Cela signifie que des précipitations ont touchés le sol mais que la quantité est inférieure à 0.1 mm.

Récapitulatif de la journée
Température [°C] Vent [km/h] Ensoleillement4 [h] Precipitations totale5 [mm] Pression [Hpa]
Min1 Max.2 Moy.3 Max. Min Max.
7.0 14.0 14.8 27.8 0 h 0 min 0 1011.6 1017.7

1 Température minimale relevée entre 18:00 UTC la veille et 18:00 UTC le jour donné.

2 Température maximale relevée entre 06:00 UTC le jour donné et 06:00 UTC le lendemain.

3 Vent moyen de la journée basé sur les relevés horaires.

4 Ensoleillement en heures relevé entre 06:00 UTC la veille et 06:00 UTC le jour donné.

5 Précipitations totales tombées entre 06:00 UTC la jour donné et 06:00 UTC le lendemain.

Graphiques horaires